sensor_id;sensor_type;location;lat;lon;timestamp;temperature;humidity
68691;DHT22;55675;49.588;8.640;2022-09-21T00:01:21;11.10;91.20
68691;DHT22;55675;49.588;8.640;2022-09-21T00:03:50;11.00;91.20
68691;DHT22;55675;49.588;8.640;2022-09-21T00:06:18;11.00;91.30
68691;DHT22;55675;49.588;8.640;2022-09-21T00:08:44;10.90;91.30
68691;DHT22;55675;49.588;8.640;2022-09-21T00:11:12;10.90;91.40
68691;DHT22;55675;49.588;8.640;2022-09-21T00:13:39;10.80;91.40
68691;DHT22;55675;49.588;8.640;2022-09-21T00:16:06;10.80;91.50
68691;DHT22;55675;49.588;8.640;2022-09-21T00:18:32;10.70;91.50
68691;DHT22;55675;49.588;8.640;2022-09-21T00:20:58;10.70;91.50
68691;DHT22;55675;49.588;8.640;2022-09-21T00:23:23;10.60;91.50
68691;DHT22;55675;49.588;8.640;2022-09-21T00:25:49;10.60;91.50
68691;DHT22;55675;49.588;8.640;2022-09-21T00:28:14;10.50;91.60
68691;DHT22;55675;49.588;8.640;2022-09-21T00:30:40;10.50;91.60
68691;DHT22;55675;49.588;8.640;2022-09-21T00:33:06;10.50;91.60
68691;DHT22;55675;49.588;8.640;2022-09-21T00:35:31;10.40;91.70
68691;DHT22;55675;49.588;8.640;2022-09-21T00:38:01;10.40;92.10
68691;DHT22;55675;49.588;8.640;2022-09-21T00:40:28;10.40;91.80
68691;DHT22;55675;49.588;8.640;2022-09-21T00:42:53;10.30;91.80
68691;DHT22;55675;49.588;8.640;2022-09-21T00:45:19;10.30;91.80
68691;DHT22;55675;49.588;8.640;2022-09-21T00:47:51;10.30;91.90
68691;DHT22;55675;49.588;8.640;2022-09-21T00:50:22;10.30;91.90
68691;DHT22;55675;49.588;8.640;2022-09-21T00:52:52;10.30;92.00
68691;DHT22;55675;49.588;8.640;2022-09-21T00:55:29;10.20;92.00
68691;DHT22;55675;49.588;8.640;2022-09-21T00:58:05;10.20;92.10
68691;DHT22;55675;49.588;8.640;2022-09-21T01:00:35;10.20;92.20
68691;DHT22;55675;49.588;8.640;2022-09-21T01:03:01;10.20;92.20
68691;DHT22;55675;49.588;8.640;2022-09-21T01:05:27;10.10;92.30
68691;DHT22;55675;49.588;8.640;2022-09-21T01:07:54;10.10;92.30
68691;DHT22;55675;49.588;8.640;2022-09-21T01:10:21;10.10;92.40
68691;DHT22;55675;49.588;8.640;2022-09-21T01:18:19;10.00;92.20
68691;DHT22;55675;49.588;8.640;2022-09-21T01:26:30;9.90;92.40
68691;DHT22;55675;49.588;8.640;2022-09-21T01:31:37;9.80;92.50
68691;DHT22;55675;49.588;8.640;2022-09-21T01:34:09;9.80;92.50
68691;DHT22;55675;49.588;8.640;2022-09-21T01:36:39;9.80;92.50
68691;DHT22;55675;49.588;8.640;2022-09-21T01:39:11;9.70;92.70
68691;DHT22;55675;49.588;8.640;2022-09-21T01:41:40;9.70;92.70
68691;DHT22;55675;49.588;8.640;2022-09-21T01:46:45;9.70;92.70
68691;DHT22;55675;49.588;8.640;2022-09-21T01:49:14;9.60;92.70
68691;DHT22;55675;49.588;8.640;2022-09-21T01:51:46;9.60;92.80
68691;DHT22;55675;49.588;8.640;2022-09-21T01:54:19;9.60;92.80
68691;DHT22;55675;49.588;8.640;2022-09-21T01:56:50;9.50;92.80
68691;DHT22;55675;49.588;8.640;2022-09-21T01:59:53;9.50;92.80
68691;DHT22;55675;49.588;8.640;2022-09-21T02:02:26;9.50;92.80
68691;DHT22;55675;49.588;8.640;2022-09-21T02:04:53;9.50;92.80
68691;DHT22;55675;49.588;8.640;2022-09-21T02:07:19;9.40;92.90
68691;DHT22;55675;49.588;8.640;2022-09-21T02:09:46;9.40;93.20
68691;DHT22;55675;49.588;8.640;2022-09-21T02:12:12;9.40;93.10
68691;DHT22;55675;49.588;8.640;2022-09-21T02:14:39;9.40;93.10
68691;DHT22;55675;49.588;8.640;2022-09-21T02:25:14;9.30;93.20
68691;DHT22;55675;49.588;8.640;2022-09-21T02:27:51;9.20;93.20
68691;DHT22;55675;49.588;8.640;2022-09-21T02:30:23;9.20;93.20
68691;DHT22;55675;49.588;8.640;2022-09-21T02:33:15;9.20;93.20
68691;DHT22;55675;49.588;8.640;2022-09-21T02:35:48;9.20;93.20
68691;DHT22;55675;49.588;8.640;2022-09-21T02:38:21;9.10;93.20
68691;DHT22;55675;49.588;8.640;2022-09-21T02:41:03;9.10;93.20
68691;DHT22;55675;49.588;8.640;2022-09-21T02:43:55;9.10;93.50
68691;DHT22;55675;49.588;8.640;2022-09-21T02:46:36;9.10;93.20
68691;DHT22;55675;49.588;8.640;2022-09-21T02:49:26;9.00;93.10
68691;DHT22;55675;49.588;8.640;2022-09-21T02:51:57;9.00;93.10
68691;DHT22;55675;49.588;8.640;2022-09-21T02:54:26;9.00;93.20
68691;DHT22;55675;49.588;8.640;2022-09-21T02:56:53;9.00;93.30
68691;DHT22;55675;49.588;8.640;2022-09-21T02:59:20;8.90;93.30
68691;DHT22;55675;49.588;8.640;2022-09-21T03:01:48;8.90;93.30
68691;DHT22;55675;49.588;8.640;2022-09-21T03:04:15;8.90;93.40
68691;DHT22;55675;49.588;8.640;2022-09-21T03:06:41;8.90;93.50
68691;DHT22;55675;49.588;8.640;2022-09-21T03:09:06;8.90;93.40
68691;DHT22;55675;49.588;8.640;2022-09-21T03:11:33;8.90;93.30
68691;DHT22;55675;49.588;8.640;2022-09-21T03:14:00;8.80;93.30
68691;DHT22;55675;49.588;8.640;2022-09-21T03:16:26;8.80;93.30
68691;DHT22;55675;49.588;8.640;2022-09-21T03:18:52;8.80;93.70
68691;DHT22;55675;49.588;8.640;2022-09-21T03:21:18;8.80;93.40
68691;DHT22;55675;49.588;8.640;2022-09-21T03:23:43;8.80;93.40
68691;DHT22;55675;49.588;8.640;2022-09-21T03:26:09;8.70;93.40
68691;DHT22;55675;49.588;8.640;2022-09-21T03:28:34;8.70;93.40
68691;DHT22;55675;49.588;8.640;2022-09-21T03:31:00;8.70;93.40
68691;DHT22;55675;49.588;8.640;2022-09-21T03:33:26;8.70;93.60
68691;DHT22;55675;49.588;8.640;2022-09-21T03:35:51;8.70;93.60
68691;DHT22;55675;49.588;8.640;2022-09-21T03:38:18;8.60;93.50
68691;DHT22;55675;49.588;8.640;2022-09-21T03:40:48;8.60;93.60
68691;DHT22;55675;49.588;8.640;2022-09-21T03:43:15;8.60;93.50
68691;DHT22;55675;49.588;8.640;2022-09-21T03:45:41;8.60;93.80
68691;DHT22;55675;49.588;8.640;2022-09-21T03:48:08;8.60;93.50
68691;DHT22;55675;49.588;8.640;2022-09-21T03:50:33;8.60;93.50
68691;DHT22;55675;49.588;8.640;2022-09-21T03:52:59;8.50;93.40
68691;DHT22;55675;49.588;8.640;2022-09-21T03:55:25;8.50;93.40
68691;DHT22;55675;49.588;8.640;2022-09-21T03:57:51;8.50;93.40
68691;DHT22;55675;49.588;8.640;2022-09-21T04:00:17;8.40;93.40
68691;DHT22;55675;49.588;8.640;2022-09-21T04:02:42;8.30;93.40
68691;DHT22;55675;49.588;8.640;2022-09-21T04:05:10;8.40;93.50
68691;DHT22;55675;49.588;8.640;2022-09-21T04:07:36;8.30;93.50
68691;DHT22;55675;49.588;8.640;2022-09-21T04:10:03;8.40;93.50
68691;DHT22;55675;49.588;8.640;2022-09-21T04:12:30;8.40;93.50
68691;DHT22;55675;49.588;8.640;2022-09-21T04:14:56;8.30;93.50
68691;DHT22;55675;49.588;8.640;2022-09-21T04:17:22;8.30;93.50
68691;DHT22;55675;49.588;8.640;2022-09-21T04:19:47;8.30;93.50
68691;DHT22;55675;49.588;8.640;2022-09-21T04:22:13;8.30;93.50
68691;DHT22;55675;49.588;8.640;2022-09-21T04:24:39;8.30;93.50
68691;DHT22;55675;49.588;8.640;2022-09-21T04:27:08;8.30;93.60
68691;DHT22;55675;49.588;8.640;2022-09-21T04:29:34;8.30;93.60
68691;DHT22;55675;49.588;8.640;2022-09-21T04:32:00;8.30;93.60
68691;DHT22;55675;49.588;8.640;2022-09-21T04:34:26;8.30;93.60
68691;DHT22;55675;49.588;8.640;2022-09-21T04:36:51;8.30;93.60
68691;DHT22;55675;49.588;8.640;2022-09-21T04:39:19;8.30;93.60
68691;DHT22;55675;49.588;8.640;2022-09-21T04:41:44;8.30;93.60
68691;DHT22;55675;49.588;8.640;2022-09-21T04:44:10;8.30;93.60
68691;DHT22;55675;49.588;8.640;2022-09-21T04:46:36;8.30;93.70
68691;DHT22;55675;49.588;8.640;2022-09-21T04:49:01;8.30;93.90
68691;DHT22;55675;49.588;8.640;2022-09-21T04:51:27;8.30;94.20
68691;DHT22;55675;49.588;8.640;2022-09-21T04:53:53;8.40;94.30
68691;DHT22;55675;49.588;8.640;2022-09-21T04:56:18;8.40;94.50
68691;DHT22;55675;49.588;8.640;2022-09-21T04:58:44;8.40;94.50
68691;DHT22;55675;49.588;8.640;2022-09-21T05:01:09;8.40;94.50
68691;DHT22;55675;49.588;8.640;2022-09-21T05:03:36;8.40;94.50
68691;DHT22;55675;49.588;8.640;2022-09-21T05:06:01;8.40;94.80
68691;DHT22;55675;49.588;8.640;2022-09-21T05:08:27;8.40;94.60
68691;DHT22;55675;49.588;8.640;2022-09-21T05:11:14;8.40;94.50
68691;DHT22;55675;49.588;8.640;2022-09-21T05:13:41;8.30;94.40
68691;DHT22;55675;49.588;8.640;2022-09-21T05:16:07;8.40;94.50
68691;DHT22;55675;49.588;8.640;2022-09-21T05:18:33;8.30;94.50
68691;DHT22;55675;49.588;8.640;2022-09-21T05:21:00;8.30;94.50
68691;DHT22;55675;49.588;8.640;2022-09-21T05:23:26;8.40;94.60
68691;DHT22;55675;49.588;8.640;2022-09-21T05:25:54;8.40;94.50
68691;DHT22;55675;49.588;8.640;2022-09-21T05:28:19;8.40;94.50
68691;DHT22;55675;49.588;8.640;2022-09-21T05:31:02;8.40;94.50
68691;DHT22;55675;49.588;8.640;2022-09-21T05:33:29;8.40;94.50
68691;DHT22;55675;49.588;8.640;2022-09-21T05:38:34;8.40;94.30
68691;DHT22;55675;49.588;8.640;2022-09-21T05:41:00;8.40;94.00
68691;DHT22;55675;49.588;8.640;2022-09-21T05:43:26;8.40;93.90
68691;DHT22;55675;49.588;8.640;2022-09-21T05:46:07;8.40;93.80
68691;DHT22;55675;49.588;8.640;2022-09-21T05:48:40;8.40;93.80
68691;DHT22;55675;49.588;8.640;2022-09-21T05:54:08;8.40;93.90
68691;DHT22;55675;49.588;8.640;2022-09-21T05:57:00;8.50;93.90
68691;DHT22;55675;49.588;8.640;2022-09-21T06:02:53;8.60;93.90
68691;DHT22;55675;49.588;8.640;2022-09-21T06:05:21;8.70;93.90
68691;DHT22;55675;49.588;8.640;2022-09-21T06:07:47;8.70;93.80
68691;DHT22;55675;49.588;8.640;2022-09-21T06:10:13;8.80;93.90
68691;DHT22;55675;49.588;8.640;2022-09-21T06:12:39;8.90;93.80
68691;DHT22;55675;49.588;8.640;2022-09-21T06:15:08;9.00;94.30
68691;DHT22;55675;49.588;8.640;2022-09-21T06:17:35;9.10;94.20
68691;DHT22;55675;49.588;8.640;2022-09-21T06:20:00;9.20;93.90
68691;DHT22;55675;49.588;8.640;2022-09-21T06:22:27;9.30;93.80
68691;DHT22;55675;49.588;8.640;2022-09-21T06:24:53;9.40;93.80
68691;DHT22;55675;49.588;8.640;2022-09-21T06:27:18;9.50;93.80
68691;DHT22;55675;49.588;8.640;2022-09-21T06:29:44;9.50;93.80
68691;DHT22;55675;49.588;8.640;2022-09-21T06:32:09;9.60;93.80
68691;DHT22;55675;49.588;8.640;2022-09-21T06:34:35;9.70;93.90
68691;DHT22;55675;49.588;8.640;2022-09-21T06:37:02;9.90;94.00
68691;DHT22;55675;49.588;8.640;2022-09-21T06:39:28;10.00;93.90
68691;DHT22;55675;49.588;8.640;2022-09-21T06:41:53;10.10;94.00
68691;DHT22;55675;49.588;8.640;2022-09-21T06:44:19;10.20;93.90
68691;DHT22;55675;49.588;8.640;2022-09-21T06:46:45;10.30;93.90
68691;DHT22;55675;49.588;8.640;2022-09-21T06:49:10;10.40;93.90
68691;DHT22;55675;49.588;8.640;2022-09-21T06:51:36;10.60;93.80
68691;DHT22;55675;49.588;8.640;2022-09-21T06:54:01;10.70;93.60
68691;DHT22;55675;49.588;8.640;2022-09-21T06:56:27;10.80;93.40
68691;DHT22;55675;49.588;8.640;2022-09-21T06:58:53;10.90;93.20
68691;DHT22;55675;49.588;8.640;2022-09-21T07:01:19;11.00;93.10
68691;DHT22;55675;49.588;8.640;2022-09-21T07:03:48;11.00;92.80
68691;DHT22;55675;49.588;8.640;2022-09-21T07:06:14;11.10;92.70
68691;DHT22;55675;49.588;8.640;2022-09-21T07:08:41;11.20;92.60
68691;DHT22;55675;49.588;8.640;2022-09-21T07:11:07;11.40;92.60
68691;DHT22;55675;49.588;8.640;2022-09-21T07:13:32;11.50;92.50
68691;DHT22;55675;49.588;8.640;2022-09-21T07:16:02;11.60;92.40
68691;DHT22;55675;49.588;8.640;2022-09-21T07:18:30;11.60;91.80
68691;DHT22;55675;49.588;8.640;2022-09-21T07:20:55;11.60;91.60
68691;DHT22;55675;49.588;8.640;2022-09-21T07:23:21;11.60;91.50
68691;DHT22;55675;49.588;8.640;2022-09-21T07:25:48;11.60;91.50
68691;DHT22;55675;49.588;8.640;2022-09-21T07:28:15;11.60;91.50
68691;DHT22;55675;49.588;8.640;2022-09-21T07:30:41;11.70;91.60
68691;DHT22;55675;49.588;8.640;2022-09-21T07:33:07;11.70;91.60
68691;DHT22;55675;49.588;8.640;2022-09-21T07:35:33;11.80;91.90
68691;DHT22;55675;49.588;8.640;2022-09-21T07:38:00;11.80;91.80
68691;DHT22;55675;49.588;8.640;2022-09-21T07:40:26;12.00;91.60
68691;DHT22;55675;49.588;8.640;2022-09-21T07:42:56;12.00;91.50
68691;DHT22;55675;49.588;8.640;2022-09-21T07:45:21;12.10;91.30
68691;DHT22;55675;49.588;8.640;2022-09-21T07:47:47;12.20;91.20
68691;DHT22;55675;49.588;8.640;2022-09-21T07:50:12;12.30;91.00
68691;DHT22;55675;49.588;8.640;2022-09-21T07:52:38;12.40;90.60
68691;DHT22;55675;49.588;8.640;2022-09-21T07:55:04;12.50;90.70
68691;DHT22;55675;49.588;8.640;2022-09-21T07:57:30;12.60;90.60
68691;DHT22;55675;49.588;8.640;2022-09-21T08:00:14;12.70;90.70
68691;DHT22;55675;49.588;8.640;2022-09-21T08:02:39;12.80;90.50
68691;DHT22;55675;49.588;8.640;2022-09-21T08:05:05;12.90;90.40
68691;DHT22;55675;49.588;8.640;2022-09-21T08:07:31;13.00;90.10
68691;DHT22;55675;49.588;8.640;2022-09-21T08:09:57;13.10;90.10
68691;DHT22;55675;49.588;8.640;2022-09-21T08:12:22;13.20;89.50
68691;DHT22;55675;49.588;8.640;2022-09-21T08:14:48;13.30;89.60
68691;DHT22;55675;49.588;8.640;2022-09-21T08:17:14;13.40;88.90
68691;DHT22;55675;49.588;8.640;2022-09-21T08:19:40;13.60;88.20
68691;DHT22;55675;49.588;8.640;2022-09-21T08:22:06;13.70;87.00
68691;DHT22;55675;49.588;8.640;2022-09-21T08:24:31;13.70;87.20
68691;DHT22;55675;49.588;8.640;2022-09-21T08:26:58;13.80;87.00
68691;DHT22;55675;49.588;8.640;2022-09-21T08:29:24;13.90;86.40
68691;DHT22;55675;49.588;8.640;2022-09-21T08:31:50;14.00;85.20
68691;DHT22;55675;49.588;8.640;2022-09-21T08:34:16;14.00;84.70
68691;DHT22;55675;49.588;8.640;2022-09-21T08:36:44;14.10;84.20
68691;DHT22;55675;49.588;8.640;2022-09-21T08:39:10;14.20;84.20
68691;DHT22;55675;49.588;8.640;2022-09-21T08:44:14;14.30;83.50
68691;DHT22;55675;49.588;8.640;2022-09-21T08:46:42;14.40;82.50
68691;DHT22;55675;49.588;8.640;2022-09-21T08:49:17;14.40;81.20
68691;DHT22;55675;49.588;8.640;2022-09-21T08:51:59;14.50;80.10
68691;DHT22;55675;49.588;8.640;2022-09-21T08:54:41;14.50;80.00
68691;DHT22;55675;49.588;8.640;2022-09-21T08:57:11;14.60;80.90
68691;DHT22;55675;49.588;8.640;2022-09-21T08:59:42;14.60;81.10
68691;DHT22;55675;49.588;8.640;2022-09-21T09:02:26;14.60;80.20
68691;DHT22;55675;49.588;8.640;2022-09-21T09:05:16;14.60;79.90
68691;DHT22;55675;49.588;8.640;2022-09-21T09:11:17;14.80;78.10
68691;DHT22;55675;49.588;8.640;2022-09-21T09:13:55;14.90;76.40
68691;DHT22;55675;49.588;8.640;2022-09-21T09:22:14;15.20;73.50
68691;DHT22;55675;49.588;8.640;2022-09-21T09:24:51;15.20;72.80
68691;DHT22;55675;49.588;8.640;2022-09-21T09:27:24;15.30;72.80
68691;DHT22;55675;49.588;8.640;2022-09-21T09:30:04;15.30;73.10
68691;DHT22;55675;49.588;8.640;2022-09-21T09:32:40;15.40;72.20
68691;DHT22;55675;49.588;8.640;2022-09-21T09:35:44;15.50;71.80
68691;DHT22;55675;49.588;8.640;2022-09-21T09:38:26;15.60;70.80
68691;DHT22;55675;49.588;8.640;2022-09-21T09:48:44;15.90;69.30
68691;DHT22;55675;49.588;8.640;2022-09-21T09:51:14;16.10;69.20
68691;DHT22;55675;49.588;8.640;2022-09-21T09:53:39;16.20;68.30
68691;DHT22;55675;49.588;8.640;2022-09-21T09:56:08;16.30;67.70
68691;DHT22;55675;49.588;8.640;2022-09-21T09:58:48;16.30;67.60
68691;DHT22;55675;49.588;8.640;2022-09-21T10:01:44;16.40;66.60
68691;DHT22;55675;49.588;8.640;2022-09-21T10:04:15;16.50;65.20
68691;DHT22;55675;49.588;8.640;2022-09-21T10:06:42;16.60;65.40
68691;DHT22;55675;49.588;8.640;2022-09-21T10:11:43;16.90;65.50
68691;DHT22;55675;49.588;8.640;2022-09-21T10:14:09;17.00;63.70
68691;DHT22;55675;49.588;8.640;2022-09-21T10:16:39;17.00;62.60
68691;DHT22;55675;49.588;8.640;2022-09-21T10:19:05;17.10;63.20
68691;DHT22;55675;49.588;8.640;2022-09-21T10:21:41;17.20;61.60
68691;DHT22;55675;49.588;8.640;2022-09-21T10:27:02;17.30;61.50
68691;DHT22;55675;49.588;8.640;2022-09-21T10:29:46;17.50;60.90
68691;DHT22;55675;49.588;8.640;2022-09-21T10:32:21;17.60;61.20
68691;DHT22;55675;49.588;8.640;2022-09-21T10:37:38;17.80;58.20
68691;DHT22;55675;49.588;8.640;2022-09-21T10:42:45;17.80;57.80
68691;DHT22;55675;49.588;8.640;2022-09-21T10:45:30;18.00;57.60
68691;DHT22;55675;49.588;8.640;2022-09-21T10:50:42;18.50;56.10
68691;DHT22;55675;49.588;8.640;2022-09-21T10:55:49;18.90;55.50
68691;DHT22;55675;49.588;8.640;2022-09-21T10:58:17;18.90;55.40
68691;DHT22;55675;49.588;8.640;2022-09-21T11:00:47;19.00;54.50
68691;DHT22;55675;49.588;8.640;2022-09-21T11:08:53;19.60;52.70
68691;DHT22;55675;49.588;8.640;2022-09-21T11:14:23;19.70;52.50
68691;DHT22;55675;49.588;8.640;2022-09-21T11:17:11;19.60;52.90
68691;DHT22;55675;49.588;8.640;2022-09-21T11:19:50;19.60;53.10
68691;DHT22;55675;49.588;8.640;2022-09-21T11:22:58;19.70;52.80
68691;DHT22;55675;49.588;8.640;2022-09-21T11:28:45;20.00;52.30
68691;DHT22;55675;49.588;8.640;2022-09-21T11:45:00;20.20;45.90
68691;DHT22;55675;49.588;8.640;2022-09-21T11:50:31;20.40;46.70
68691;DHT22;55675;49.588;8.640;2022-09-21T11:53:19;20.60;45.80
68691;DHT22;55675;49.588;8.640;2022-09-21T11:58:36;21.20;46.80
68691;DHT22;55675;49.588;8.640;2022-09-21T12:03:49;21.80;42.10
68691;DHT22;55675;49.588;8.640;2022-09-21T12:06:31;21.80;42.80
68691;DHT22;55675;49.588;8.640;2022-09-21T12:11:40;21.70;43.50
68691;DHT22;55675;49.588;8.640;2022-09-21T12:21:38;22.60;40.60
68691;DHT22;55675;49.588;8.640;2022-09-21T12:24:11;22.80;39.50
68691;DHT22;55675;49.588;8.640;2022-09-21T12:26:39;23.00;38.60
68691;DHT22;55675;49.588;8.640;2022-09-21T12:29:28;23.20;36.90
68691;DHT22;55675;49.588;8.640;2022-09-21T12:32:01;23.30;37.70
68691;DHT22;55675;49.588;8.640;2022-09-21T12:34:39;23.50;39.10
68691;DHT22;55675;49.588;8.640;2022-09-21T12:37:11;23.80;37.10
68691;DHT22;55675;49.588;8.640;2022-09-21T12:42:29;24.00;35.80
68691;DHT22;55675;49.588;8.640;2022-09-21T12:45:27;24.10;35.80
68691;DHT22;55675;49.588;8.640;2022-09-21T12:48:38;24.30;34.60
68691;DHT22;55675;49.588;8.640;2022-09-21T12:53:35;24.40;35.80
68691;DHT22;55675;49.588;8.640;2022-09-21T12:56:06;24.20;35.30
68691;DHT22;55675;49.588;8.640;2022-09-21T13:01:20;23.70;35.40
68691;DHT22;55675;49.588;8.640;2022-09-21T13:09:30;23.60;35.40
68691;DHT22;55675;49.588;8.640;2022-09-21T13:12:00;23.80;36.30
68691;DHT22;55675;49.588;8.640;2022-09-21T13:14:31;23.80;36.20
68691;DHT22;55675;49.588;8.640;2022-09-21T13:17:02;23.90;34.60
68691;DHT22;55675;49.588;8.640;2022-09-21T13:19:30;23.80;35.30
68691;DHT22;55675;49.588;8.640;2022-09-21T13:22:12;23.90;35.70
68691;DHT22;55675;49.588;8.640;2022-09-21T13:28:03;30.20;31.30
68691;DHT22;55675;49.588;8.640;2022-09-21T13:30:38;33.30;26.80
68691;DHT22;55675;49.588;8.640;2022-09-21T13:35:59;37.70;22.30
68691;DHT22;55675;49.588;8.640;2022-09-21T13:49:03;43.50;16.90
68691;DHT22;55675;49.588;8.640;2022-09-21T13:51:33;44.40;14.90
68691;DHT22;55675;49.588;8.640;2022-09-21T13:54:00;45.80;15.70
68691;DHT22;55675;49.588;8.640;2022-09-21T13:56:27;47.60;14.30
68691;DHT22;55675;49.588;8.640;2022-09-21T13:58:55;48.50;13.40
68691;DHT22;55675;49.588;8.640;2022-09-21T14:01:24;49.90;12.50
68691;DHT22;55675;49.588;8.640;2022-09-21T14:03:59;50.50;12.00
68691;DHT22;55675;49.588;8.640;2022-09-21T14:06:32;51.10;11.70
68691;DHT22;55675;49.588;8.640;2022-09-21T14:09:21;51.50;11.00
68691;DHT22;55675;49.588;8.640;2022-09-21T14:11:54;51.30;10.70
68691;DHT22;55675;49.588;8.640;2022-09-21T14:14:32;50.50;11.20
68691;DHT22;55675;49.588;8.640;2022-09-21T14:17:14;51.00;11.40
68691;DHT22;55675;49.588;8.640;2022-09-21T14:24:46;51.80;10.50
68691;DHT22;55675;49.588;8.640;2022-09-21T14:27:47;52.00;10.60
68691;DHT22;55675;49.588;8.640;2022-09-21T14:30:22;52.00;10.60
68691;DHT22;55675;49.588;8.640;2022-09-21T14:35:35;51.30;11.20
68691;DHT22;55675;49.588;8.640;2022-09-21T14:38:23;48.40;10.70
68691;DHT22;55675;49.588;8.640;2022-09-21T14:40:51;47.40;12.20
68691;DHT22;55675;49.588;8.640;2022-09-21T14:43:26;47.90;11.80
68691;DHT22;55675;49.588;8.640;2022-09-21T14:46:16;48.80;11.50
68691;DHT22;55675;49.588;8.640;2022-09-21T14:57:40;50.80;10.80
68691;DHT22;55675;49.588;8.640;2022-09-21T15:00:19;50.70;10.80
68691;DHT22;55675;49.588;8.640;2022-09-21T15:02:48;50.30;10.70
68691;DHT22;55675;49.588;8.640;2022-09-21T15:05:28;50.00;11.00
68691;DHT22;55675;49.588;8.640;2022-09-21T15:11:27;49.10;11.40
68691;DHT22;55675;49.588;8.640;2022-09-21T15:14:09;47.70;11.70
68691;DHT22;55675;49.588;8.640;2022-09-21T15:16:43;46.60;12.40
68691;DHT22;55675;49.588;8.640;2022-09-21T15:19:24;46.20;12.40
68691;DHT22;55675;49.588;8.640;2022-09-21T15:22:17;45.90;12.70
68691;DHT22;55675;49.588;8.640;2022-09-21T15:24:57;45.40;12.70
68691;DHT22;55675;49.588;8.640;2022-09-21T15:27:26;44.10;13.20
68691;DHT22;55675;49.588;8.640;2022-09-21T15:29:58;43.70;13.60
68691;DHT22;55675;49.588;8.640;2022-09-21T15:32:41;43.50;13.60
68691;DHT22;55675;49.588;8.640;2022-09-21T15:37:44;43.30;13.50
68691;DHT22;55675;49.588;8.640;2022-09-21T15:40:21;43.00;13.70
68691;DHT22;55675;49.588;8.640;2022-09-21T15:43:16;42.80;13.80
68691;DHT22;55675;49.588;8.640;2022-09-21T15:45:53;43.00;14.30
68691;DHT22;55675;49.588;8.640;2022-09-21T15:48:28;43.10;13.80
68691;DHT22;55675;49.588;8.640;2022-09-21T15:51:14;43.10;13.90
68691;DHT22;55675;49.588;8.640;2022-09-21T15:53:47;42.90;13.80
68691;DHT22;55675;49.588;8.640;2022-09-21T15:56:23;42.70;14.30
68691;DHT22;55675;49.588;8.640;2022-09-21T15:58:51;42.30;14.10
68691;DHT22;55675;49.588;8.640;2022-09-21T16:01:22;42.00;14.40
68691;DHT22;55675;49.588;8.640;2022-09-21T16:04:00;41.70;14.20
68691;DHT22;55675;49.588;8.640;2022-09-21T16:06:34;41.40;14.70
68691;DHT22;55675;49.588;8.640;2022-09-21T16:11:47;40.80;15.60
68691;DHT22;55675;49.588;8.640;2022-09-21T16:14:15;40.50;15.80
68691;DHT22;55675;49.588;8.640;2022-09-21T16:25:02;38.70;16.00
68691;DHT22;55675;49.588;8.640;2022-09-21T16:27:37;38.20;16.80
68691;DHT22;55675;49.588;8.640;2022-09-21T16:30:36;38.00;16.80
68691;DHT22;55675;49.588;8.640;2022-09-21T16:36:36;37.20;17.60
68691;DHT22;55675;49.588;8.640;2022-09-21T16:39:03;36.60;17.70
68691;DHT22;55675;49.588;8.640;2022-09-21T16:41:49;35.90;18.40
68691;DHT22;55675;49.588;8.640;2022-09-21T16:44:18;35.40;18.60
68691;DHT22;55675;49.588;8.640;2022-09-21T16:46:52;34.90;18.60
68691;DHT22;55675;49.588;8.640;2022-09-21T16:49:19;34.30;19.20
68691;DHT22;55675;49.588;8.640;2022-09-21T16:51:47;33.70;20.20
68691;DHT22;55675;49.588;8.640;2022-09-21T16:54:13;32.80;20.30
68691;DHT22;55675;49.588;8.640;2022-09-21T16:56:39;31.50;21.30
68691;DHT22;55675;49.588;8.640;2022-09-21T16:59:17;30.20;22.90
68691;DHT22;55675;49.588;8.640;2022-09-21T17:01:53;28.90;24.20
68691;DHT22;55675;49.588;8.640;2022-09-21T17:04:25;27.70;25.30
68691;DHT22;55675;49.588;8.640;2022-09-21T17:06:51;26.60;26.70
68691;DHT22;55675;49.588;8.640;2022-09-21T17:09:27;25.50;27.60
68691;DHT22;55675;49.588;8.640;2022-09-21T17:11:56;24.60;29.00
68691;DHT22;55675;49.588;8.640;2022-09-21T17:14:31;23.80;31.90
68691;DHT22;55675;49.588;8.640;2022-09-21T17:17:09;23.10;32.20
68691;DHT22;55675;49.588;8.640;2022-09-21T17:19:36;22.50;33.50
68691;DHT22;55675;49.588;8.640;2022-09-21T17:22:02;21.90;34.30
68691;DHT22;55675;49.588;8.640;2022-09-21T17:24:28;21.40;35.60
68691;DHT22;55675;49.588;8.640;2022-09-21T17:26:54;20.90;36.50
68691;DHT22;55675;49.588;8.640;2022-09-21T17:29:22;20.50;37.70
68691;DHT22;55675;49.588;8.640;2022-09-21T17:31:56;20.10;38.40
68691;DHT22;55675;49.588;8.640;2022-09-21T17:34:27;19.80;39.50
68691;DHT22;55675;49.588;8.640;2022-09-21T17:36:53;19.50;40.40
68691;DHT22;55675;49.588;8.640;2022-09-21T17:39:20;19.20;41.50
68691;DHT22;55675;49.588;8.640;2022-09-21T17:42:02;18.90;41.90
68691;DHT22;55675;49.588;8.640;2022-09-21T17:44:57;18.60;42.90
68691;DHT22;55675;49.588;8.640;2022-09-21T17:47:28;18.40;42.90
68691;DHT22;55675;49.588;8.640;2022-09-21T17:52:38;17.90;45.00
68691;DHT22;55675;49.588;8.640;2022-09-21T17:55:23;17.60;45.50
68691;DHT22;55675;49.588;8.640;2022-09-21T18:03:31;17.00;47.10
68691;DHT22;55675;49.588;8.640;2022-09-21T18:06:00;16.90;48.30
68691;DHT22;55675;49.588;8.640;2022-09-21T18:08:30;16.70;48.30
68691;DHT22;55675;49.588;8.640;2022-09-21T18:19:23;16.10;50.60
68691;DHT22;55675;49.588;8.640;2022-09-21T18:24:36;15.70;51.90
68691;DHT22;55675;49.588;8.640;2022-09-21T18:27:02;15.60;52.10
68691;DHT22;55675;49.588;8.640;2022-09-21T18:29:32;15.50;52.50
68691;DHT22;55675;49.588;8.640;2022-09-21T18:35:03;15.30;53.70
68691;DHT22;55675;49.588;8.640;2022-09-21T18:46:24;14.90;55.00
68691;DHT22;55675;49.588;8.640;2022-09-21T18:51:45;14.70;55.70
68691;DHT22;55675;49.588;8.640;2022-09-21T18:54:18;14.60;56.00
68691;DHT22;55675;49.588;8.640;2022-09-21T18:56:45;14.50;56.20
68691;DHT22;55675;49.588;8.640;2022-09-21T18:59:11;14.40;56.70
68691;DHT22;55675;49.588;8.640;2022-09-21T19:01:38;14.40;56.90
68691;DHT22;55675;49.588;8.640;2022-09-21T19:04:05;14.30;57.30
68691;DHT22;55675;49.588;8.640;2022-09-21T19:07:02;14.20;57.30
68691;DHT22;55675;49.588;8.640;2022-09-21T19:26:42;13.80;59.40
68691;DHT22;55675;49.588;8.640;2022-09-21T19:32:28;13.70;59.70
68691;DHT22;55675;49.588;8.640;2022-09-21T19:34:55;13.60;59.90
68691;DHT22;55675;49.588;8.640;2022-09-21T19:37:22;13.50;60.60
68691;DHT22;55675;49.588;8.640;2022-09-21T19:39:48;13.50;60.60
68691;DHT22;55675;49.588;8.640;2022-09-21T19:42:19;13.50;60.90
68691;DHT22;55675;49.588;8.640;2022-09-21T19:45:10;13.40;61.50
68691;DHT22;55675;49.588;8.640;2022-09-21T19:50:25;13.40;61.60
68691;DHT22;55675;49.588;8.640;2022-09-21T19:52:53;13.30;61.50
68691;DHT22;55675;49.588;8.640;2022-09-21T19:55:40;13.30;61.60
68691;DHT22;55675;49.588;8.640;2022-09-21T19:58:25;13.20;62.20